sensor_id;sensor_type;location;lat;lon;timestamp;temperature;humidity
28608;DHT22;15802;45.654;13.804;2022-10-16T00:00:44;15.10;99.90
28608;DHT22;15802;45.654;13.804;2022-10-16T00:03:10;15.10;99.90
28608;DHT22;15802;45.654;13.804;2022-10-16T00:05:38;15.10;99.90
28608;DHT22;15802;45.654;13.804;2022-10-16T00:08:05;15.00;99.90
28608;DHT22;15802;45.654;13.804;2022-10-16T00:10:31;15.00;99.90
28608;DHT22;15802;45.654;13.804;2022-10-16T00:12:56;15.00;99.90
28608;DHT22;15802;45.654;13.804;2022-10-16T00:15:22;15.00;99.90
28608;DHT22;15802;45.654;13.804;2022-10-16T00:17:48;14.90;99.90
28608;DHT22;15802;45.654;13.804;2022-10-16T00:20:14;14.90;99.90
28608;DHT22;15802;45.654;13.804;2022-10-16T00:22:40;14.90;99.90
28608;DHT22;15802;45.654;13.804;2022-10-16T00:25:05;14.90;99.90
28608;DHT22;15802;45.654;13.804;2022-10-16T00:27:32;14.90;99.90
28608;DHT22;15802;45.654;13.804;2022-10-16T00:29:58;15.00;99.90
28608;DHT22;15802;45.654;13.804;2022-10-16T00:32:23;15.00;99.90
28608;DHT22;15802;45.654;13.804;2022-10-16T00:34:49;15.00;99.90
28608;DHT22;15802;45.654;13.804;2022-10-16T00:37:15;14.90;99.90
28608;DHT22;15802;45.654;13.804;2022-10-16T00:39:42;14.90;99.90
28608;DHT22;15802;45.654;13.804;2022-10-16T00:42:10;14.80;99.90
28608;DHT22;15802;45.654;13.804;2022-10-16T00:44:43;14.80;99.90
28608;DHT22;15802;45.654;13.804;2022-10-16T00:47:10;14.90;99.90
28608;DHT22;15802;45.654;13.804;2022-10-16T00:49:38;14.80;99.90
28608;DHT22;15802;45.654;13.804;2022-10-16T00:52:04;14.80;99.90
28608;DHT22;15802;45.654;13.804;2022-10-16T00:54:31;14.80;99.90
28608;DHT22;15802;45.654;13.804;2022-10-16T00:56:58;14.80;99.90
28608;DHT22;15802;45.654;13.804;2022-10-16T00:59:26;14.80;99.90
28608;DHT22;15802;45.654;13.804;2022-10-16T01:01:52;14.80;99.90
28608;DHT22;15802;45.654;13.804;2022-10-16T01:04:18;14.80;99.90
28608;DHT22;15802;45.654;13.804;2022-10-16T01:07:10;14.70;99.90
28608;DHT22;15802;45.654;13.804;2022-10-16T01:09:44;14.70;99.90
28608;DHT22;15802;45.654;13.804;2022-10-16T01:12:14;14.80;99.90
28608;DHT22;15802;45.654;13.804;2022-10-16T01:14:46;14.70;99.90
28608;DHT22;15802;45.654;13.804;2022-10-16T01:17:35;14.70;99.90
28608;DHT22;15802;45.654;13.804;2022-10-16T01:20:04;14.70;99.90
28608;DHT22;15802;45.654;13.804;2022-10-16T01:22:38;14.70;99.90
28608;DHT22;15802;45.654;13.804;2022-10-16T01:25:05;14.70;99.90
28608;DHT22;15802;45.654;13.804;2022-10-16T01:27:34;14.60;99.90
28608;DHT22;15802;45.654;13.804;2022-10-16T01:30:07;14.70;99.90
28608;DHT22;15802;45.654;13.804;2022-10-16T01:32:37;14.70;99.90
28608;DHT22;15802;45.654;13.804;2022-10-16T01:35:04;14.60;99.90
28608;DHT22;15802;45.654;13.804;2022-10-16T01:37:40;14.60;99.90
28608;DHT22;15802;45.654;13.804;2022-10-16T01:40:11;14.60;99.90
28608;DHT22;15802;45.654;13.804;2022-10-16T01:42:39;14.60;99.90
28608;DHT22;15802;45.654;13.804;2022-10-16T01:45:05;14.60;99.90
28608;DHT22;15802;45.654;13.804;2022-10-16T01:47:33;14.60;99.90
28608;DHT22;15802;45.654;13.804;2022-10-16T01:50:00;14.60;99.90
28608;DHT22;15802;45.654;13.804;2022-10-16T01:52:27;14.50;99.90
28608;DHT22;15802;45.654;13.804;2022-10-16T01:54:54;14.60;99.90
28608;DHT22;15802;45.654;13.804;2022-10-16T01:57:20;14.60;99.90
28608;DHT22;15802;45.654;13.804;2022-10-16T01:59:48;14.60;99.90
28608;DHT22;15802;45.654;13.804;2022-10-16T02:02:15;14.70;99.90
28608;DHT22;15802;45.654;13.804;2022-10-16T02:04:44;14.70;99.90
28608;DHT22;15802;45.654;13.804;2022-10-16T02:07:10;14.70;99.90
28608;DHT22;15802;45.654;13.804;2022-10-16T02:09:36;14.70;99.90
28608;DHT22;15802;45.654;13.804;2022-10-16T02:12:04;14.70;99.90
28608;DHT22;15802;45.654;13.804;2022-10-16T02:14:34;14.70;99.90
28608;DHT22;15802;45.654;13.804;2022-10-16T02:17:09;14.70;99.90
28608;DHT22;15802;45.654;13.804;2022-10-16T02:19:35;14.80;99.90
28608;DHT22;15802;45.654;13.804;2022-10-16T02:22:02;14.80;99.90
28608;DHT22;15802;45.654;13.804;2022-10-16T02:24:39;14.70;99.90
28608;DHT22;15802;45.654;13.804;2022-10-16T02:27:18;14.60;99.90
28608;DHT22;15802;45.654;13.804;2022-10-16T02:29:49;14.60;99.90
28608;DHT22;15802;45.654;13.804;2022-10-16T02:32:17;14.60;99.90
28608;DHT22;15802;45.654;13.804;2022-10-16T02:34:45;14.60;99.90
28608;DHT22;15802;45.654;13.804;2022-10-16T02:37:12;14.60;99.90
28608;DHT22;15802;45.654;13.804;2022-10-16T02:39:38;14.70;99.90
28608;DHT22;15802;45.654;13.804;2022-10-16T02:42:04;14.70;99.90
28608;DHT22;15802;45.654;13.804;2022-10-16T02:44:30;14.70;99.90
28608;DHT22;15802;45.654;13.804;2022-10-16T02:46:55;14.70;99.90
28608;DHT22;15802;45.654;13.804;2022-10-16T02:49:21;14.70;99.90
28608;DHT22;15802;45.654;13.804;2022-10-16T02:51:47;14.80;99.90
28608;DHT22;15802;45.654;13.804;2022-10-16T02:54:12;14.80;99.90
28608;DHT22;15802;45.654;13.804;2022-10-16T02:56:38;14.80;99.90
28608;DHT22;15802;45.654;13.804;2022-10-16T02:59:04;14.80;99.90
28608;DHT22;15802;45.654;13.804;2022-10-16T03:01:30;14.80;99.90
28608;DHT22;15802;45.654;13.804;2022-10-16T03:03:56;14.80;99.90
28608;DHT22;15802;45.654;13.804;2022-10-16T03:06:22;14.80;99.90
28608;DHT22;15802;45.654;13.804;2022-10-16T03:08:48;14.90;99.90
28608;DHT22;15802;45.654;13.804;2022-10-16T03:11:14;14.80;99.90
28608;DHT22;15802;45.654;13.804;2022-10-16T03:13:39;14.80;99.90
28608;DHT22;15802;45.654;13.804;2022-10-16T03:16:05;14.90;99.90
28608;DHT22;15802;45.654;13.804;2022-10-16T03:18:32;14.90;99.90
28608;DHT22;15802;45.654;13.804;2022-10-16T03:20:58;14.90;99.90
28608;DHT22;15802;45.654;13.804;2022-10-16T03:23:26;15.00;99.90
28608;DHT22;15802;45.654;13.804;2022-10-16T03:25:51;15.10;99.90
28608;DHT22;15802;45.654;13.804;2022-10-16T03:28:17;15.10;99.90
28608;DHT22;15802;45.654;13.804;2022-10-16T03:30:43;15.10;99.90
28608;DHT22;15802;45.654;13.804;2022-10-16T03:33:09;15.10;99.90
28608;DHT22;15802;45.654;13.804;2022-10-16T03:35:35;15.10;99.90
28608;DHT22;15802;45.654;13.804;2022-10-16T03:38:01;15.20;99.90
28608;DHT22;15802;45.654;13.804;2022-10-16T03:40:27;15.20;99.90
28608;DHT22;15802;45.654;13.804;2022-10-16T03:42:52;15.30;99.90
28608;DHT22;15802;45.654;13.804;2022-10-16T03:45:22;15.20;99.90
28608;DHT22;15802;45.654;13.804;2022-10-16T03:47:48;15.20;99.90
28608;DHT22;15802;45.654;13.804;2022-10-16T03:50:14;15.20;99.90
28608;DHT22;15802;45.654;13.804;2022-10-16T03:52:42;15.40;99.90
28608;DHT22;15802;45.654;13.804;2022-10-16T03:55:08;15.30;99.90
28608;DHT22;15802;45.654;13.804;2022-10-16T03:57:33;15.40;99.90
28608;DHT22;15802;45.654;13.804;2022-10-16T04:00:00;15.40;99.90
28608;DHT22;15802;45.654;13.804;2022-10-16T04:02:25;15.30;99.90
28608;DHT22;15802;45.654;13.804;2022-10-16T04:04:51;15.30;99.90
28608;DHT22;15802;45.654;13.804;2022-10-16T04:07:17;15.40;99.90
28608;DHT22;15802;45.654;13.804;2022-10-16T04:09:43;15.50;99.90
28608;DHT22;15802;45.654;13.804;2022-10-16T04:12:09;15.60;99.90
28608;DHT22;15802;45.654;13.804;2022-10-16T04:14:35;15.50;99.90
28608;DHT22;15802;45.654;13.804;2022-10-16T04:17:01;15.60;99.90
28608;DHT22;15802;45.654;13.804;2022-10-16T04:19:27;15.60;99.90
28608;DHT22;15802;45.654;13.804;2022-10-16T04:21:53;15.60;99.90
28608;DHT22;15802;45.654;13.804;2022-10-16T04:24:18;15.70;99.90
28608;DHT22;15802;45.654;13.804;2022-10-16T04:26:44;15.60;99.90
28608;DHT22;15802;45.654;13.804;2022-10-16T04:29:10;15.70;99.90
28608;DHT22;15802;45.654;13.804;2022-10-16T04:31:36;15.70;99.90
28608;DHT22;15802;45.654;13.804;2022-10-16T04:34:01;15.70;99.90
28608;DHT22;15802;45.654;13.804;2022-10-16T04:36:27;15.70;99.90
28608;DHT22;15802;45.654;13.804;2022-10-16T04:38:53;15.70;99.90
28608;DHT22;15802;45.654;13.804;2022-10-16T04:41:19;15.70;99.90
28608;DHT22;15802;45.654;13.804;2022-10-16T04:46:13;15.70;99.90
28608;DHT22;15802;45.654;13.804;2022-10-16T04:48:39;15.60;99.90
28608;DHT22;15802;45.654;13.804;2022-10-16T04:51:05;15.60;99.90
28608;DHT22;15802;45.654;13.804;2022-10-16T04:53:31;15.60;99.90
28608;DHT22;15802;45.654;13.804;2022-10-16T04:55:56;15.50;99.90
28608;DHT22;15802;45.654;13.804;2022-10-16T04:58:22;15.50;99.90
28608;DHT22;15802;45.654;13.804;2022-10-16T05:00:48;15.50;99.90
28608;DHT22;15802;45.654;13.804;2022-10-16T05:03:14;15.50;99.90
28608;DHT22;15802;45.654;13.804;2022-10-16T05:05:43;15.50;99.90
28608;DHT22;15802;45.654;13.804;2022-10-16T05:08:10;15.50;99.90
28608;DHT22;15802;45.654;13.804;2022-10-16T05:10:35;15.50;99.90
28608;DHT22;15802;45.654;13.804;2022-10-16T05:13:01;15.50;99.90
28608;DHT22;15802;45.654;13.804;2022-10-16T05:15:30;15.40;99.90
28608;DHT22;15802;45.654;13.804;2022-10-16T05:17:56;15.40;99.90
28608;DHT22;15802;45.654;13.804;2022-10-16T05:20:22;15.40;99.90
28608;DHT22;15802;45.654;13.804;2022-10-16T05:22:48;15.50;99.90
28608;DHT22;15802;45.654;13.804;2022-10-16T05:25:14;15.50;99.90
28608;DHT22;15802;45.654;13.804;2022-10-16T05:27:39;15.50;99.90
28608;DHT22;15802;45.654;13.804;2022-10-16T05:30:05;15.50;99.90
28608;DHT22;15802;45.654;13.804;2022-10-16T05:32:31;15.40;99.90
28608;DHT22;15802;45.654;13.804;2022-10-16T05:34:57;15.30;99.90
28608;DHT22;15802;45.654;13.804;2022-10-16T05:37:25;15.30;99.90
28608;DHT22;15802;45.654;13.804;2022-10-16T05:39:52;15.30;99.90
28608;DHT22;15802;45.654;13.804;2022-10-16T05:42:18;15.30;99.90
28608;DHT22;15802;45.654;13.804;2022-10-16T05:44:44;15.30;99.90
28608;DHT22;15802;45.654;13.804;2022-10-16T05:47:12;15.20;99.90
28608;DHT22;15802;45.654;13.804;2022-10-16T05:49:39;15.20;99.90
28608;DHT22;15802;45.654;13.804;2022-10-16T05:52:05;15.20;99.90
28608;DHT22;15802;45.654;13.804;2022-10-16T05:54:30;15.20;99.90
28608;DHT22;15802;45.654;13.804;2022-10-16T05:56:56;15.10;99.90
28608;DHT22;15802;45.654;13.804;2022-10-16T05:59:22;15.10;99.90
28608;DHT22;15802;45.654;13.804;2022-10-16T06:01:48;15.10;99.90
28608;DHT22;15802;45.654;13.804;2022-10-16T06:04:13;15.00;99.90
28608;DHT22;15802;45.654;13.804;2022-10-16T06:06:39;15.10;99.90
28608;DHT22;15802;45.654;13.804;2022-10-16T06:09:04;15.10;99.90
28608;DHT22;15802;45.654;13.804;2022-10-16T06:11:31;15.10;99.90
28608;DHT22;15802;45.654;13.804;2022-10-16T06:13:57;15.10;99.90
28608;DHT22;15802;45.654;13.804;2022-10-16T06:16:24;15.10;99.90
28608;DHT22;15802;45.654;13.804;2022-10-16T06:18:53;15.10;99.90
28608;DHT22;15802;45.654;13.804;2022-10-16T06:21:21;15.20;99.90
28608;DHT22;15802;45.654;13.804;2022-10-16T06:23:47;15.20;99.90
28608;DHT22;15802;45.654;13.804;2022-10-16T06:26:13;15.20;99.90
28608;DHT22;15802;45.654;13.804;2022-10-16T06:28:40;15.30;99.90
28608;DHT22;15802;45.654;13.804;2022-10-16T06:31:06;15.30;99.90
28608;DHT22;15802;45.654;13.804;2022-10-16T06:33:32;15.30;99.90
28608;DHT22;15802;45.654;13.804;2022-10-16T06:36:05;15.30;99.90
28608;DHT22;15802;45.654;13.804;2022-10-16T06:38:32;15.30;99.90
28608;DHT22;15802;45.654;13.804;2022-10-16T06:40:58;15.40;99.90
28608;DHT22;15802;45.654;13.804;2022-10-16T06:43:24;15.40;99.90
28608;DHT22;15802;45.654;13.804;2022-10-16T06:45:52;15.50;99.90
28608;DHT22;15802;45.654;13.804;2022-10-16T06:48:18;15.60;99.90
28608;DHT22;15802;45.654;13.804;2022-10-16T06:50:43;15.60;99.90
28608;DHT22;15802;45.654;13.804;2022-10-16T06:53:09;15.70;99.90
28608;DHT22;15802;45.654;13.804;2022-10-16T06:55:34;15.70;99.90
28608;DHT22;15802;45.654;13.804;2022-10-16T06:58:00;15.80;99.90
28608;DHT22;15802;45.654;13.804;2022-10-16T07:00:26;15.80;99.90
28608;DHT22;15802;45.654;13.804;2022-10-16T07:02:55;15.80;99.90
28608;DHT22;15802;45.654;13.804;2022-10-16T07:05:21;15.90;99.90
28608;DHT22;15802;45.654;13.804;2022-10-16T07:07:47;15.90;99.90
28608;DHT22;15802;45.654;13.804;2022-10-16T07:10:13;15.90;99.90
28608;DHT22;15802;45.654;13.804;2022-10-16T07:12:38;16.00;99.90
28608;DHT22;15802;45.654;13.804;2022-10-16T07:15:04;16.00;99.90
28608;DHT22;15802;45.654;13.804;2022-10-16T07:17:31;16.10;99.90
28608;DHT22;15802;45.654;13.804;2022-10-16T07:19:56;16.20;99.90
28608;DHT22;15802;45.654;13.804;2022-10-16T07:22:23;16.20;99.90
28608;DHT22;15802;45.654;13.804;2022-10-16T07:24:49;16.30;99.90
28608;DHT22;15802;45.654;13.804;2022-10-16T07:27:16;16.30;99.90
28608;DHT22;15802;45.654;13.804;2022-10-16T07:29:42;16.30;99.90
28608;DHT22;15802;45.654;13.804;2022-10-16T07:32:08;16.40;99.90
28608;DHT22;15802;45.654;13.804;2022-10-16T07:34:34;16.40;99.90
28608;DHT22;15802;45.654;13.804;2022-10-16T07:37:00;16.50;99.90
28608;DHT22;15802;45.654;13.804;2022-10-16T07:39:26;16.50;99.90
28608;DHT22;15802;45.654;13.804;2022-10-16T07:41:52;16.60;99.90
28608;DHT22;15802;45.654;13.804;2022-10-16T07:44:17;16.80;99.90
28608;DHT22;15802;45.654;13.804;2022-10-16T07:46:44;16.80;99.90
28608;DHT22;15802;45.654;13.804;2022-10-16T07:49:10;16.90;99.90
28608;DHT22;15802;45.654;13.804;2022-10-16T07:51:36;17.00;99.90
28608;DHT22;15802;45.654;13.804;2022-10-16T07:54:03;17.00;99.90
28608;DHT22;15802;45.654;13.804;2022-10-16T07:56:30;17.10;99.90
28608;DHT22;15802;45.654;13.804;2022-10-16T07:58:55;17.20;99.90
28608;DHT22;15802;45.654;13.804;2022-10-16T08:01:22;17.20;99.90
28608;DHT22;15802;45.654;13.804;2022-10-16T08:03:48;17.30;99.90
28608;DHT22;15802;45.654;13.804;2022-10-16T08:06:15;17.40;99.90
28608;DHT22;15802;45.654;13.804;2022-10-16T08:08:41;17.40;99.90
28608;DHT22;15802;45.654;13.804;2022-10-16T08:11:07;17.40;99.90
28608;DHT22;15802;45.654;13.804;2022-10-16T08:13:33;17.50;99.90
28608;DHT22;15802;45.654;13.804;2022-10-16T08:16:00;17.60;99.90
28608;DHT22;15802;45.654;13.804;2022-10-16T08:18:25;17.70;99.90
28608;DHT22;15802;45.654;13.804;2022-10-16T08:20:55;17.70;99.90
28608;DHT22;15802;45.654;13.804;2022-10-16T08:23:21;17.80;99.90
28608;DHT22;15802;45.654;13.804;2022-10-16T08:25:47;17.90;99.90
28608;DHT22;15802;45.654;13.804;2022-10-16T08:28:14;18.00;99.90
28608;DHT22;15802;45.654;13.804;2022-10-16T08:30:42;18.10;99.90
28608;DHT22;15802;45.654;13.804;2022-10-16T08:33:08;18.20;99.90
28608;DHT22;15802;45.654;13.804;2022-10-16T08:35:34;18.40;99.90
28608;DHT22;15802;45.654;13.804;2022-10-16T08:37:59;18.50;99.90
28608;DHT22;15802;45.654;13.804;2022-10-16T08:40:26;18.60;99.90
28608;DHT22;15802;45.654;13.804;2022-10-16T08:42:58;18.70;99.90
28608;DHT22;15802;45.654;13.804;2022-10-16T08:45:33;18.80;99.90
28608;DHT22;15802;45.654;13.804;2022-10-16T08:48:06;18.80;99.90
28608;DHT22;15802;45.654;13.804;2022-10-16T08:50:38;19.00;99.90
28608;DHT22;15802;45.654;13.804;2022-10-16T08:53:04;19.00;99.90
28608;DHT22;15802;45.654;13.804;2022-10-16T08:55:34;19.10;99.90
28608;DHT22;15802;45.654;13.804;2022-10-16T08:58:12;19.20;99.90
28608;DHT22;15802;45.654;13.804;2022-10-16T09:00:38;19.20;99.90
28608;DHT22;15802;45.654;13.804;2022-10-16T09:03:23;19.30;99.90
28608;DHT22;15802;45.654;13.804;2022-10-16T09:05:54;19.30;99.90
28608;DHT22;15802;45.654;13.804;2022-10-16T09:08:27;19.40;99.90
28608;DHT22;15802;45.654;13.804;2022-10-16T09:10:59;19.50;99.90
28608;DHT22;15802;45.654;13.804;2022-10-16T09:13:30;19.60;99.90
28608;DHT22;15802;45.654;13.804;2022-10-16T09:16:01;19.70;99.90
28608;DHT22;15802;45.654;13.804;2022-10-16T09:18:33;19.80;99.90
28608;DHT22;15802;45.654;13.804;2022-10-16T09:21:06;19.80;99.90
28608;DHT22;15802;45.654;13.804;2022-10-16T09:23:34;19.90;99.90
28608;DHT22;15802;45.654;13.804;2022-10-16T09:26:00;20.00;99.90
28608;DHT22;15802;45.654;13.804;2022-10-16T09:28:27;20.10;99.90
28608;DHT22;15802;45.654;13.804;2022-10-16T09:30:52;20.10;99.90
28608;DHT22;15802;45.654;13.804;2022-10-16T09:33:19;20.20;99.90
28608;DHT22;15802;45.654;13.804;2022-10-16T09:35:47;20.20;99.90
28608;DHT22;15802;45.654;13.804;2022-10-16T09:38:31;20.30;99.90
28608;DHT22;15802;45.654;13.804;2022-10-16T09:40:58;20.30;99.90
28608;DHT22;15802;45.654;13.804;2022-10-16T09:43:25;20.40;99.90
28608;DHT22;15802;45.654;13.804;2022-10-16T09:45:55;20.40;99.90
28608;DHT22;15802;45.654;13.804;2022-10-16T09:48:24;20.50;99.90
28608;DHT22;15802;45.654;13.804;2022-10-16T09:50:59;20.50;99.90
28608;DHT22;15802;45.654;13.804;2022-10-16T09:53:26;20.50;99.90
28608;DHT22;15802;45.654;13.804;2022-10-16T09:56:00;20.60;99.90
28608;DHT22;15802;45.654;13.804;2022-10-16T09:58:26;20.50;99.90
28608;DHT22;15802;45.654;13.804;2022-10-16T10:00:53;20.60;99.90
28608;DHT22;15802;45.654;13.804;2022-10-16T10:06:24;20.70;99.90
28608;DHT22;15802;45.654;13.804;2022-10-16T10:08:53;20.70;99.90
28608;DHT22;15802;45.654;13.804;2022-10-16T10:11:35;20.70;99.90
28608;DHT22;15802;45.654;13.804;2022-10-16T10:14:05;20.70;99.90
28608;DHT22;15802;45.654;13.804;2022-10-16T10:16:31;20.80;99.90
28608;DHT22;15802;45.654;13.804;2022-10-16T10:18:58;20.80;99.90
28608;DHT22;15802;45.654;13.804;2022-10-16T10:21:24;20.90;99.90
28608;DHT22;15802;45.654;13.804;2022-10-16T10:23:57;20.90;99.90
28608;DHT22;15802;45.654;13.804;2022-10-16T10:26:24;20.90;99.90
28608;DHT22;15802;45.654;13.804;2022-10-16T10:28:55;20.80;99.90
28608;DHT22;15802;45.654;13.804;2022-10-16T10:31:29;20.80;99.90
28608;DHT22;15802;45.654;13.804;2022-10-16T10:34:04;20.80;99.90
28608;DHT22;15802;45.654;13.804;2022-10-16T10:36:35;20.90;99.90
28608;DHT22;15802;45.654;13.804;2022-10-16T10:39:04;20.90;99.90
28608;DHT22;15802;45.654;13.804;2022-10-16T10:41:39;21.00;99.90
28608;DHT22;15802;45.654;13.804;2022-10-16T10:44:13;21.00;99.90
28608;DHT22;15802;45.654;13.804;2022-10-16T10:46:54;21.00;99.90
28608;DHT22;15802;45.654;13.804;2022-10-16T10:49:42;21.10;99.90
28608;DHT22;15802;45.654;13.804;2022-10-16T10:52:13;21.20;99.90
28608;DHT22;15802;45.654;13.804;2022-10-16T10:57:35;21.10;99.90
28608;DHT22;15802;45.654;13.804;2022-10-16T11:00:23;21.10;99.90
28608;DHT22;15802;45.654;13.804;2022-10-16T11:03:13;21.00;99.90
28608;DHT22;15802;45.654;13.804;2022-10-16T11:05:45;21.00;99.90
28608;DHT22;15802;45.654;13.804;2022-10-16T11:08:15;21.10;99.90
28608;DHT22;15802;45.654;13.804;2022-10-16T11:10:45;21.00;99.90
28608;DHT22;15802;45.654;13.804;2022-10-16T11:13:17;20.90;99.90
28608;DHT22;15802;45.654;13.804;2022-10-16T11:15:45;20.90;99.90
28608;DHT22;15802;45.654;13.804;2022-10-16T11:18:15;20.90;99.90
28608;DHT22;15802;45.654;13.804;2022-10-16T11:20:45;21.00;99.90
28608;DHT22;15802;45.654;13.804;2022-10-16T11:25:59;21.10;99.90
28608;DHT22;15802;45.654;13.804;2022-10-16T11:28:28;21.10;99.90
28608;DHT22;15802;45.654;13.804;2022-10-16T11:31:13;21.20;99.90
28608;DHT22;15802;45.654;13.804;2022-10-16T11:33:42;21.20;99.90
28608;DHT22;15802;45.654;13.804;2022-10-16T11:36:15;21.20;99.90
28608;DHT22;15802;45.654;13.804;2022-10-16T11:38:59;21.40;99.90
28608;DHT22;15802;45.654;13.804;2022-10-16T11:41:28;21.30;99.90
28608;DHT22;15802;45.654;13.804;2022-10-16T11:43:59;21.30;99.90
28608;DHT22;15802;45.654;13.804;2022-10-16T11:46:29;21.40;99.90
28608;DHT22;15802;45.654;13.804;2022-10-16T11:49:00;21.30;99.90
28608;DHT22;15802;45.654;13.804;2022-10-16T11:54:20;21.40;99.90
28608;DHT22;15802;45.654;13.804;2022-10-16T11:56:48;21.40;99.90
28608;DHT22;15802;45.654;13.804;2022-10-16T11:59:21;21.40;99.90
28608;DHT22;15802;45.654;13.804;2022-10-16T12:01:51;21.50;99.90
28608;DHT22;15802;45.654;13.804;2022-10-16T12:04:23;21.50;99.90
28608;DHT22;15802;45.654;13.804;2022-10-16T12:06:55;21.40;99.90
28608;DHT22;15802;45.654;13.804;2022-10-16T12:09:27;21.40;99.90
28608;DHT22;15802;45.654;13.804;2022-10-16T12:11:54;21.50;99.90
28608;DHT22;15802;45.654;13.804;2022-10-16T12:14:21;21.50;99.90
28608;DHT22;15802;45.654;13.804;2022-10-16T12:16:52;21.50;99.90
28608;DHT22;15802;45.654;13.804;2022-10-16T12:19:18;21.50;99.90
28608;DHT22;15802;45.654;13.804;2022-10-16T12:21:45;21.50;99.90
28608;DHT22;15802;45.654;13.804;2022-10-16T12:24:19;21.50;99.90
28608;DHT22;15802;45.654;13.804;2022-10-16T12:26:46;21.50;99.90
28608;DHT22;15802;45.654;13.804;2022-10-16T12:29:13;21.50;99.90
28608;DHT22;15802;45.654;13.804;2022-10-16T12:31:43;21.50;99.90
28608;DHT22;15802;45.654;13.804;2022-10-16T12:34:21;21.40;99.90
28608;DHT22;15802;45.654;13.804;2022-10-16T12:36:47;21.50;99.90
28608;DHT22;15802;45.654;13.804;2022-10-16T12:39:22;21.50;99.90
28608;DHT22;15802;45.654;13.804;2022-10-16T12:41:48;21.50;99.90
28608;DHT22;15802;45.654;13.804;2022-10-16T12:44:25;21.40;99.90
28608;DHT22;15802;45.654;13.804;2022-10-16T12:46:54;21.60;99.90
28608;DHT22;15802;45.654;13.804;2022-10-16T12:49:29;21.60;99.90
28608;DHT22;15802;45.654;13.804;2022-10-16T12:51:55;21.60;99.90
28608;DHT22;15802;45.654;13.804;2022-10-16T12:54:22;21.70;99.90
28608;DHT22;15802;45.654;13.804;2022-10-16T12:57:09;21.70;99.90
28608;DHT22;15802;45.654;13.804;2022-10-16T13:00:04;21.70;99.90
28608;DHT22;15802;45.654;13.804;2022-10-16T13:02:41;21.60;99.90
28608;DHT22;15802;45.654;13.804;2022-10-16T13:05:14;21.70;99.90
28608;DHT22;15802;45.654;13.804;2022-10-16T13:08:01;21.70;99.90
28608;DHT22;15802;45.654;13.804;2022-10-16T13:10:32;21.70;99.90
28608;DHT22;15802;45.654;13.804;2022-10-16T13:13:05;21.70;99.90
28608;DHT22;15802;45.654;13.804;2022-10-16T13:15:37;21.70;99.90
28608;DHT22;15802;45.654;13.804;2022-10-16T13:23:38;21.70;99.90
28608;DHT22;15802;45.654;13.804;2022-10-16T13:26:12;21.60;99.90
28608;DHT22;15802;45.654;13.804;2022-10-16T13:28:44;21.60;99.90
28608;DHT22;15802;45.654;13.804;2022-10-16T13:31:19;21.60;99.90
28608;DHT22;15802;45.654;13.804;2022-10-16T13:33:46;21.60;99.90
28608;DHT22;15802;45.654;13.804;2022-10-16T13:36:30;21.50;99.90
28608;DHT22;15802;45.654;13.804;2022-10-16T13:39:10;21.50;99.90
28608;DHT22;15802;45.654;13.804;2022-10-16T13:41:37;21.40;99.90
28608;DHT22;15802;45.654;13.804;2022-10-16T13:44:03;21.30;99.90
28608;DHT22;15802;45.654;13.804;2022-10-16T13:46:29;21.30;99.90
28608;DHT22;15802;45.654;13.804;2022-10-16T13:49:05;21.30;99.90
28608;DHT22;15802;45.654;13.804;2022-10-16T13:51:31;21.30;99.90
28608;DHT22;15802;45.654;13.804;2022-10-16T13:53:58;21.30;99.90
28608;DHT22;15802;45.654;13.804;2022-10-16T13:56:26;21.20;99.90
28608;DHT22;15802;45.654;13.804;2022-10-16T13:59:00;21.10;99.90
28608;DHT22;15802;45.654;13.804;2022-10-16T14:01:32;21.10;99.90
28608;DHT22;15802;45.654;13.804;2022-10-16T14:04:00;21.20;99.90
28608;DHT22;15802;45.654;13.804;2022-10-16T14:06:27;21.10;99.90
28608;DHT22;15802;45.654;13.804;2022-10-16T14:08:59;21.10;99.90
28608;DHT22;15802;45.654;13.804;2022-10-16T14:11:25;21.10;99.90
28608;DHT22;15802;45.654;13.804;2022-10-16T14:13:51;21.00;99.90
28608;DHT22;15802;45.654;13.804;2022-10-16T14:16:18;20.90;99.90
28608;DHT22;15802;45.654;13.804;2022-10-16T14:18:45;20.90;99.90
28608;DHT22;15802;45.654;13.804;2022-10-16T14:21:12;20.90;99.90
28608;DHT22;15802;45.654;13.804;2022-10-16T14:23:40;20.90;99.90
28608;DHT22;15802;45.654;13.804;2022-10-16T14:26:12;20.90;99.90
28608;DHT22;15802;45.654;13.804;2022-10-16T14:28:39;20.80;99.90
28608;DHT22;15802;45.654;13.804;2022-10-16T14:31:25;20.80;99.90
28608;DHT22;15802;45.654;13.804;2022-10-16T14:33:52;20.70;99.90
28608;DHT22;15802;45.654;13.804;2022-10-16T14:36:18;20.60;99.90
28608;DHT22;15802;45.654;13.804;2022-10-16T14:38:51;20.60;99.90
28608;DHT22;15802;45.654;13.804;2022-10-16T14:41:21;20.60;99.90
28608;DHT22;15802;45.654;13.804;2022-10-16T14:43:49;20.50;99.90
28608;DHT22;15802;45.654;13.804;2022-10-16T14:46:19;20.50;99.90
28608;DHT22;15802;45.654;13.804;2022-10-16T14:48:46;20.50;99.90
28608;DHT22;15802;45.654;13.804;2022-10-16T14:51:15;20.40;99.90
28608;DHT22;15802;45.654;13.804;2022-10-16T14:53:41;20.40;99.90
28608;DHT22;15802;45.654;13.804;2022-10-16T14:56:07;20.30;99.90
28608;DHT22;15802;45.654;13.804;2022-10-16T14:58:34;20.20;99.90
28608;DHT22;15802;45.654;13.804;2022-10-16T15:01:00;20.20;99.90
28608;DHT22;15802;45.654;13.804;2022-10-16T15:03:41;20.10;99.90
28608;DHT22;15802;45.654;13.804;2022-10-16T15:06:09;20.00;99.90
28608;DHT22;15802;45.654;13.804;2022-10-16T15:08:35;19.90;99.90
28608;DHT22;15802;45.654;13.804;2022-10-16T15:11:01;19.90;99.90
28608;DHT22;15802;45.654;13.804;2022-10-16T15:13:27;19.90;99.90
28608;DHT22;15802;45.654;13.804;2022-10-16T15:15:56;19.90;99.90
28608;DHT22;15802;45.654;13.804;2022-10-16T15:18:23;19.90;99.90
28608;DHT22;15802;45.654;13.804;2022-10-16T15:20:50;19.80;99.90
28608;DHT22;15802;45.654;13.804;2022-10-16T15:25:49;19.70;99.90
28608;DHT22;15802;45.654;13.804;2022-10-16T15:28:17;19.60;99.90
28608;DHT22;15802;45.654;13.804;2022-10-16T15:30:44;19.50;99.90
28608;DHT22;15802;45.654;13.804;2022-10-16T15:33:18;19.40;99.90
28608;DHT22;15802;45.654;13.804;2022-10-16T15:35:46;19.40;99.90
28608;DHT22;15802;45.654;13.804;2022-10-16T15:38:13;19.30;99.90
28608;DHT22;15802;45.654;13.804;2022-10-16T15:40:42;19.20;99.90
28608;DHT22;15802;45.654;13.804;2022-10-16T15:43:11;19.10;99.90
28608;DHT22;15802;45.654;13.804;2022-10-16T15:45:37;19.20;99.90